createdAt,value
2023-03-29T00:01:10.055Z,94428.00
2023-03-29T00:03:39.453Z,94446.00
2023-03-29T00:06:15.113Z,94447.00
2023-03-29T00:08:42.434Z,94432.00
2023-03-29T00:11:09.369Z,94433.00
2023-03-29T00:13:36.615Z,94426.00
2023-03-29T00:16:03.600Z,94425.00
2023-03-29T00:18:30.569Z,94426.00
2023-03-29T00:21:00.705Z,94421.00
2023-03-29T00:23:28.163Z,94424.00
2023-03-29T00:25:56.296Z,94437.00
2023-03-29T00:28:23.842Z,94420.00
2023-03-29T00:30:55.489Z,94432.00
2023-03-29T00:33:24.706Z,94427.00
2023-03-29T00:35:55.493Z,94417.00
2023-03-29T00:38:22.382Z,94412.00
2023-03-29T00:40:51.361Z,94414.00
2023-03-29T00:43:21.244Z,94415.00
2023-03-29T00:45:48.320Z,94410.00
2023-03-29T00:48:23.877Z,94409.00
2023-03-29T00:51:06.200Z,94415.00
2023-03-29T00:53:39.705Z,94420.00
2023-03-29T00:56:14.397Z,94415.00
2023-03-29T00:58:52.401Z,94408.00
2023-03-29T01:01:38.119Z,94419.00
2023-03-29T01:04:24.093Z,94421.00
2023-03-29T01:07:00.523Z,94407.00
2023-03-29T01:09:33.456Z,94396.00
2023-03-29T01:12:08.808Z,94395.00
2023-03-29T01:14:45.988Z,94397.00
2023-03-29T01:17:12.883Z,94386.00
2023-03-29T01:19:51.615Z,94394.00
2023-03-29T01:23:01.366Z,94375.00
2023-03-29T01:25:43.257Z,94402.00
2023-03-29T01:28:21.209Z,94421.00
2023-03-29T01:31:07.426Z,94418.00
2023-03-29T01:33:43.435Z,94394.00
2023-03-29T01:36:19.270Z,94394.00
2023-03-29T01:39:03.500Z,94405.00
2023-03-29T01:42:10.990Z,94397.00
2023-03-29T01:45:06.472Z,94403.00
2023-03-29T01:47:55.812Z,94378.00
2023-03-29T01:50:37.046Z,94376.00
2023-03-29T01:53:20.253Z,94372.00
2023-03-29T01:55:54.775Z,94357.00
2023-03-29T01:58:31.325Z,94354.00
2023-03-29T02:01:00.291Z,94355.00
2023-03-29T02:03:31.005Z,94361.00
2023-03-29T02:06:00.634Z,94359.00
2023-03-29T02:08:28.364Z,94350.00
2023-03-29T02:10:57.873Z,94364.00
2023-03-29T02:13:27.850Z,94354.00
2023-03-29T02:15:54.901Z,94359.00
2023-03-29T02:18:24.789Z,94351.00
2023-03-29T02:20:55.541Z,94363.00
2023-03-29T02:23:34.143Z,94376.00
2023-03-29T02:26:03.378Z,94378.00
2023-03-29T02:28:31.815Z,94375.00
2023-03-29T02:31:39.199Z,94379.00
2023-03-29T02:34:29.351Z,94366.00
2023-03-29T02:37:04.208Z,94360.00
2023-03-29T02:39:35.805Z,94362.00
2023-03-29T02:42:04.070Z,94346.00
2023-03-29T02:44:36.416Z,94346.00
2023-03-29T02:47:15.101Z,94356.00
2023-03-29T02:49:47.081Z,94352.00
2023-03-29T02:52:23.918Z,94350.00
2023-03-29T02:54:55.931Z,94353.00
2023-03-29T02:57:26.647Z,94334.00
2023-03-29T02:59:56.962Z,94334.00
2023-03-29T03:02:27.810Z,94332.00
2023-03-29T03:04:57.633Z,94323.00
2023-03-29T03:07:29.127Z,94321.00
2023-03-29T03:09:56.998Z,94319.00
2023-03-29T03:12:24.139Z,94303.00
2023-03-29T03:14:51.633Z,94305.00
2023-03-29T03:17:21.046Z,94301.00
2023-03-29T03:19:47.913Z,94309.00
2023-03-29T03:22:19.389Z,94314.00
2023-03-29T03:24:46.262Z,94329.00
2023-03-29T03:27:13.671Z,94327.00
2023-03-29T03:29:41.389Z,94323.00
2023-03-29T03:32:08.365Z,94322.00
2023-03-29T03:34:35.660Z,94328.00
2023-03-29T03:37:05.032Z,94325.00
2023-03-29T03:39:34.441Z,94329.00
2023-03-29T03:42:01.339Z,94360.00
2023-03-29T03:44:28.225Z,94356.00
2023-03-29T03:46:57.442Z,94371.00
2023-03-29T03:49:24.361Z,94355.00
2023-03-29T03:51:53.363Z,94347.00
2023-03-29T03:54:20.262Z,94326.00
2023-03-29T03:56:49.666Z,94306.00
2023-03-29T03:59:16.807Z,94300.00
2023-03-29T04:01:43.918Z,94295.00
2023-03-29T04:04:16.498Z,94277.00
2023-03-29T04:06:44.233Z,94300.00
2023-03-29T04:09:11.278Z,94306.00
2023-03-29T04:11:40.838Z,94316.00
2023-03-29T04:14:07.903Z,94309.00
2023-03-29T04:16:37.410Z,94307.00
2023-03-29T04:19:04.251Z,94322.00
2023-03-29T04:21:31.080Z,94325.00
2023-03-29T04:23:58.014Z,94325.00
2023-03-29T04:26:27.200Z,94318.00
2023-03-29T04:28:54.094Z,94310.00
2023-03-29T04:31:21.141Z,94313.00
2023-03-29T04:33:51.679Z,94307.00
2023-03-29T04:36:21.396Z,94290.00
2023-03-29T04:38:48.835Z,94307.00
2023-03-29T04:41:15.733Z,94294.00
2023-03-29T04:43:47.616Z,94294.00
2023-03-29T04:46:18.431Z,94290.00
2023-03-29T04:48:50.180Z,94297.00
2023-03-29T04:51:20.157Z,94297.00
2023-03-29T04:53:49.692Z,94297.00
2023-03-29T04:56:17.257Z,94300.00
2023-03-29T04:58:44.574Z,94293.00
2023-03-29T05:01:11.666Z,94302.00
2023-03-29T05:03:43.356Z,94291.00
2023-03-29T05:06:12.064Z,94303.00
2023-03-29T05:08:42.486Z,94283.00
2023-03-29T05:11:13.596Z,94291.00
2023-03-29T05:13:40.511Z,94292.00
2023-03-29T05:16:08.752Z,94300.00
2023-03-29T05:18:37.988Z,94298.00
2023-03-29T05:21:09.479Z,94292.00
2023-03-29T05:23:36.305Z,94296.00
2023-03-29T05:26:04.645Z,94291.00
2023-03-29T05:28:33.946Z,94292.00
2023-03-29T05:31:05.801Z,94289.00
2023-03-29T05:33:33.613Z,94288.00
2023-03-29T05:36:05.459Z,94292.00
2023-03-29T05:38:35.013Z,94298.00
2023-03-29T05:41:10.756Z,94290.00
2023-03-29T05:43:42.431Z,94292.00
2023-03-29T05:46:09.457Z,94295.00
2023-03-29T05:48:39.540Z,94297.00
2023-03-29T05:51:09.452Z,94297.00
2023-03-29T05:53:41.750Z,94293.00
2023-03-29T05:56:11.637Z,94298.00
2023-03-29T05:58:39.311Z,94310.00
2023-03-29T06:01:14.781Z,94308.00
2023-03-29T06:03:43.973Z,94314.00
2023-03-29T06:06:11.050Z,94316.00
2023-03-29T06:08:45.416Z,94325.00
2023-03-29T06:11:13.503Z,94316.00
2023-03-29T06:13:42.061Z,94317.00
2023-03-29T06:16:13.430Z,94312.00
2023-03-29T06:18:41.131Z,94302.00
2023-03-29T06:21:09.460Z,94306.00
2023-03-29T06:23:36.965Z,94299.00
2023-03-29T06:26:05.913Z,94314.00
2023-03-29T06:28:35.917Z,94312.00
2023-03-29T06:31:05.239Z,94312.00
2023-03-29T06:33:34.107Z,94312.00
2023-03-29T06:36:01.846Z,94301.00
2023-03-29T06:38:28.819Z,94297.00
2023-03-29T06:41:07.405Z,94312.00
2023-03-29T06:43:37.690Z,94308.00
2023-03-29T06:46:08.783Z,94306.00
2023-03-29T06:48:36.021Z,94308.00
2023-03-29T06:51:03.080Z,94308.00
2023-03-29T06:53:32.702Z,94306.00
2023-03-29T06:56:00.009Z,94308.00
2023-03-29T06:58:31.539Z,94313.00
2023-03-29T07:01:05.380Z,94314.00
2023-03-29T07:03:36.022Z,94317.00
2023-03-29T07:06:04.381Z,94303.00
2023-03-29T07:08:35.243Z,94309.00
2023-03-29T07:11:03.396Z,94317.00
2023-03-29T07:13:30.658Z,94326.00
2023-03-29T07:16:00.473Z,94318.00
2023-03-29T07:18:29.794Z,94304.00
2023-03-29T07:20:58.768Z,94310.00
2023-03-29T07:23:28.232Z,94308.00
2023-03-29T07:25:57.408Z,94313.00
2023-03-29T07:28:24.297Z,94309.00
2023-03-29T07:30:51.607Z,94317.00
2023-03-29T07:33:18.799Z,94301.00
2023-03-29T07:35:48.014Z,94310.00
2023-03-29T07:38:17.506Z,94314.00
2023-03-29T07:40:46.875Z,94318.00
2023-03-29T07:43:13.701Z,94314.00
2023-03-29T07:45:46.851Z,94315.00
2023-03-29T07:48:14.541Z,94333.00
2023-03-29T07:50:43.236Z,94323.00
2023-03-29T07:53:13.614Z,94318.00
2023-03-29T07:55:47.738Z,94324.00
2023-03-29T07:58:16.098Z,94326.00
2023-03-29T08:00:45.346Z,94321.00
2023-03-29T08:03:13.227Z,94321.00
2023-03-29T08:05:42.057Z,94315.00
2023-03-29T08:08:09.689Z,94313.00
2023-03-29T08:10:39.389Z,94318.00
2023-03-29T08:13:09.090Z,94330.00
2023-03-29T08:15:40.041Z,94331.00
2023-03-29T08:18:08.290Z,94331.00
2023-03-29T08:20:37.901Z,94342.00
2023-03-29T08:23:05.307Z,94338.00
2023-03-29T08:25:32.513Z,94339.00
2023-03-29T08:27:59.377Z,94330.00
2023-03-29T08:30:26.352Z,94329.00
2023-03-29T08:32:55.286Z,94337.00
2023-03-29T08:35:25.192Z,94338.00
2023-03-29T08:37:52.083Z,94336.00
2023-03-29T08:40:29.996Z,94327.00
2023-03-29T08:43:15.054Z,94333.00
2023-03-29T08:46:34.286Z,94330.00
2023-03-29T08:49:05.455Z,94314.00
2023-03-29T08:51:39.462Z,94323.00
2023-03-29T08:54:20.578Z,94329.00
2023-03-29T08:56:52.774Z,94326.00
2023-03-29T08:59:28.308Z,94331.00
2023-03-29T09:01:58.754Z,94341.00
2023-03-29T09:04:43.738Z,94329.00
2023-03-29T09:07:14.474Z,94307.00
2023-03-29T09:09:46.281Z,94320.00
2023-03-29T09:12:44.597Z,94318.00
2023-03-29T09:15:23.662Z,94307.00
2023-03-29T09:18:43.929Z,94307.00
2023-03-29T09:21:31.751Z,94304.00
2023-03-29T09:24:13.591Z,94306.00
2023-03-29T09:27:07.431Z,94301.00
2023-03-29T09:29:50.448Z,94305.00
2023-03-29T09:32:23.303Z,94293.00
2023-03-29T09:35:03.683Z,94299.00
2023-03-29T09:37:35.959Z,94303.00
2023-03-29T09:40:13.136Z,94301.00
2023-03-29T09:42:41.064Z,94300.00
2023-03-29T09:45:11.216Z,94300.00
2023-03-29T09:47:48.092Z,94285.00
2023-03-29T09:50:30.305Z,94296.00
2023-03-29T09:52:59.384Z,94290.00
2023-03-29T09:55:30.218Z,94299.00
2023-03-29T09:58:27.635Z,94286.00
2023-03-29T10:00:59.881Z,94288.00
2023-03-29T10:03:33.656Z,94290.00
2023-03-29T10:06:07.072Z,94289.00
2023-03-29T10:08:41.851Z,94299.00
2023-03-29T10:11:20.293Z,94299.00
2023-03-29T10:13:50.788Z,94299.00
2023-03-29T10:16:25.871Z,94305.00
2023-03-29T10:18:54.620Z,94301.00
2023-03-29T10:21:25.518Z,94281.00
2023-03-29T10:24:01.097Z,94299.00
2023-03-29T10:26:32.720Z,94285.00
2023-03-29T10:29:02.237Z,94294.00
2023-03-29T10:31:33.062Z,94286.00
2023-03-29T10:34:06.446Z,94299.00
2023-03-29T10:36:34.103Z,94286.00
2023-03-29T10:39:06.037Z,94282.00
2023-03-29T10:41:37.816Z,94281.00
2023-03-29T10:44:06.926Z,94286.00
2023-03-29T10:46:47.120Z,94281.00
2023-03-29T10:49:22.014Z,94274.00
2023-03-29T10:51:50.784Z,94269.00
2023-03-29T10:54:24.135Z,94267.00
2023-03-29T10:57:05.338Z,94266.00
2023-03-29T11:00:12.385Z,94259.00
2023-03-29T11:02:45.336Z,94263.00
2023-03-29T11:05:32.612Z,94266.00
2023-03-29T11:08:16.644Z,94253.00
2023-03-29T11:10:50.500Z,94254.00
2023-03-29T11:13:59.408Z,94253.00
2023-03-29T11:16:57.491Z,94251.00
2023-03-29T11:19:35.960Z,94252.00
2023-03-29T11:22:36.527Z,94256.00
2023-03-29T11:25:30.131Z,94259.00
2023-03-29T11:28:18.664Z,94253.00
2023-03-29T11:30:59.844Z,94259.00
2023-03-29T11:33:53.946Z,94252.00
2023-03-29T11:36:45.662Z,94257.00
2023-03-29T11:39:22.368Z,94262.00
2023-03-29T11:41:55.995Z,94264.00
2023-03-29T11:44:27.461Z,94253.00
2023-03-29T11:47:05.963Z,94249.00
2023-03-29T11:49:56.205Z,94263.00
2023-03-29T11:52:29.267Z,94252.00
2023-03-29T11:55:29.035Z,94260.00
2023-03-29T11:58:11.008Z,94259.00
2023-03-29T12:00:43.590Z,94249.00
2023-03-29T12:03:38.689Z,94247.00
2023-03-29T12:06:27.433Z,94239.00
2023-03-29T12:09:14.854Z,94235.00
2023-03-29T12:11:55.135Z,94249.00
2023-03-29T12:14:29.899Z,94247.00
2023-03-29T12:17:04.480Z,94257.00
2023-03-29T12:19:51.568Z,94239.00
2023-03-29T12:22:18.994Z,94247.00
2023-03-29T12:24:48.974Z,94240.00
2023-03-29T12:27:28.552Z,94231.00
2023-03-29T12:30:04.228Z,94240.00
2023-03-29T12:32:56.217Z,94233.00
2023-03-29T12:35:38.645Z,94236.00
2023-03-29T12:38:24.190Z,94231.00
2023-03-29T12:41:16.917Z,94220.00
2023-03-29T12:43:49.441Z,94217.00
2023-03-29T12:46:25.924Z,94216.00
2023-03-29T12:49:14.845Z,94219.00
2023-03-29T12:51:44.232Z,94216.00
2023-03-29T12:54:22.463Z,94202.00
2023-03-29T12:56:52.436Z,94208.00
2023-03-29T12:59:38.906Z,94207.00
2023-03-29T13:02:15.036Z,94201.00
2023-03-29T13:05:01.190Z,94188.00
2023-03-29T13:07:48.518Z,94192.00
2023-03-29T13:10:40.645Z,94201.00
2023-03-29T13:13:36.300Z,94187.00
2023-03-29T13:16:17.732Z,94193.00
2023-03-29T13:19:15.137Z,94199.00
2023-03-29T13:22:18.507Z,94196.00
2023-03-29T13:25:16.198Z,94194.00
2023-03-29T13:28:13.096Z,94193.00
2023-03-29T13:30:58.487Z,94205.00
2023-03-29T13:34:02.160Z,94205.00
2023-03-29T13:37:04.812Z,94200.00
2023-03-29T13:39:36.912Z,94187.00
2023-03-29T13:42:34.426Z,94197.00
2023-03-29T13:45:17.318Z,94201.00
2023-03-29T13:48:02.413Z,94195.00
2023-03-29T13:50:39.540Z,94198.00
2023-03-29T13:53:10.001Z,94198.00
2023-03-29T13:55:51.373Z,94200.00
2023-03-29T13:58:42.992Z,94198.00
2023-03-29T14:01:43.277Z,94198.00
2023-03-29T14:04:20.211Z,94205.00
2023-03-29T14:06:53.435Z,94185.00
2023-03-29T14:09:24.865Z,94189.00
2023-03-29T14:11:51.831Z,94193.00
2023-03-29T14:14:26.404Z,94173.00
2023-03-29T14:16:56.061Z,94172.00
2023-03-29T14:19:36.982Z,94176.00
2023-03-29T14:22:10.840Z,94162.00
2023-03-29T14:24:53.108Z,94177.00
2023-03-29T14:27:23.646Z,94173.00
2023-03-29T14:29:52.334Z,94179.00
2023-03-29T14:32:29.333Z,94182.00
2023-03-29T14:34:56.630Z,94168.00
2023-03-29T14:37:30.337Z,94181.00
2023-03-29T14:39:59.313Z,94172.00
2023-03-29T14:42:28.423Z,94172.00
2023-03-29T14:45:06.248Z,94166.00
2023-03-29T14:47:34.315Z,94170.00
2023-03-29T14:50:02.512Z,94178.00
2023-03-29T14:52:34.832Z,94169.00
2023-03-29T14:55:05.834Z,94164.00
2023-03-29T14:57:38.233Z,94163.00
2023-03-29T15:00:37.902Z,94165.00
2023-03-29T15:03:15.925Z,94166.00
2023-03-29T15:06:04.802Z,94154.00
2023-03-29T15:08:45.777Z,94158.00
2023-03-29T15:11:27.403Z,94160.00
2023-03-29T15:14:05.248Z,94153.00
2023-03-29T15:16:38.999Z,94154.00
2023-03-29T15:19:06.282Z,94152.00
2023-03-29T15:21:36.228Z,94154.00
2023-03-29T15:24:04.801Z,94146.00
2023-03-29T15:26:34.017Z,94151.00
2023-03-29T15:29:17.106Z,94143.00
2023-03-29T15:31:59.140Z,94144.00
2023-03-29T15:34:32.457Z,94141.00
2023-03-29T15:37:00.844Z,94139.00
2023-03-29T15:39:29.271Z,94149.00
2023-03-29T15:41:57.500Z,94150.00
2023-03-29T15:44:29.890Z,94157.00
2023-03-29T15:46:57.798Z,94156.00
2023-03-29T15:49:25.441Z,94154.00
2023-03-29T15:51:54.039Z,94147.00
2023-03-29T15:54:22.275Z,94148.00
2023-03-29T15:56:57.172Z,94157.00
2023-03-29T15:59:28.767Z,94157.00
2023-03-29T16:01:56.225Z,94146.00
2023-03-29T16:04:23.263Z,94160.00
2023-03-29T16:06:55.551Z,94151.00
2023-03-29T16:09:25.763Z,94155.00
2023-03-29T16:11:52.729Z,94153.00
2023-03-29T16:14:24.251Z,94153.00
2023-03-29T16:17:01.175Z,94151.00
2023-03-29T16:19:32.768Z,94160.00
2023-03-29T16:22:02.826Z,94157.00
2023-03-29T16:24:32.314Z,94151.00
2023-03-29T16:27:01.280Z,94157.00
2023-03-29T16:29:31.161Z,94156.00
2023-03-29T16:31:58.332Z,94159.00
2023-03-29T16:34:25.412Z,94157.00
2023-03-29T16:36:53.077Z,94162.00
2023-03-29T16:39:25.467Z,94162.00
2023-03-29T16:41:52.368Z,94170.00
2023-03-29T16:44:26.849Z,94171.00
2023-03-29T16:46:54.208Z,94162.00
2023-03-29T16:49:21.464Z,94164.00
2023-03-29T16:51:48.740Z,94166.00
2023-03-29T16:54:19.857Z,94166.00
2023-03-29T16:56:47.176Z,94155.00
2023-03-29T16:59:14.475Z,94155.00
2023-03-29T17:01:46.375Z,94179.00
2023-03-29T17:04:18.214Z,94177.00
2023-03-29T17:06:45.221Z,94180.00
2023-03-29T17:09:12.106Z,94179.00
2023-03-29T17:11:41.697Z,94179.00
2023-03-29T17:14:08.699Z,94173.00
2023-03-29T17:16:40.596Z,94165.00
2023-03-29T17:19:12.318Z,94154.00
2023-03-29T17:21:44.273Z,94149.00
2023-03-29T17:24:11.126Z,94162.00
2023-03-29T17:26:40.206Z,94165.00
2023-03-29T17:29:07.176Z,94164.00
2023-03-29T17:31:36.254Z,94164.00
2023-03-29T17:34:03.500Z,94159.00
2023-03-29T17:36:33.683Z,94157.00
2023-03-29T17:39:05.913Z,94157.00
2023-03-29T17:41:32.858Z,94168.00
2023-03-29T17:44:01.183Z,94157.00
2023-03-29T17:46:28.647Z,94156.00
2023-03-29T17:48:58.136Z,94158.00
2023-03-29T17:51:25.297Z,94148.00
2023-03-29T17:53:52.605Z,94151.00
2023-03-29T17:56:22.871Z,94156.00
2023-03-29T17:58:50.924Z,94155.00
2023-03-29T18:01:19.601Z,94149.00
2023-03-29T18:03:49.319Z,94153.00
2023-03-29T18:06:20.162Z,94152.00
2023-03-29T18:08:47.465Z,94158.00
2023-03-29T18:11:22.913Z,94163.00
2023-03-29T18:13:51.842Z,94163.00
2023-03-29T18:16:20.846Z,94173.00
2023-03-29T18:18:50.888Z,94177.00
2023-03-29T18:21:21.009Z,94169.00
2023-03-29T18:23:52.891Z,94187.00
2023-03-29T18:26:24.180Z,94179.00
2023-03-29T18:28:54.306Z,94194.00
2023-03-29T18:31:21.321Z,94176.00
2023-03-29T18:33:48.340Z,94191.00
2023-03-29T18:36:15.479Z,94193.00
2023-03-29T18:38:44.521Z,94184.00
2023-03-29T18:41:14.589Z,94192.00
2023-03-29T18:43:44.317Z,94193.00
2023-03-29T18:46:11.386Z,94189.00
2023-03-29T18:48:41.918Z,94188.00
2023-03-29T18:51:13.720Z,94179.00
2023-03-29T18:53:42.928Z,94179.00
2023-03-29T18:56:10.148Z,94172.00
2023-03-29T18:58:37.073Z,94167.00
2023-03-29T19:01:06.123Z,94160.00
2023-03-29T19:03:34.730Z,94166.00
2023-03-29T19:06:04.792Z,94162.00
2023-03-29T19:08:32.935Z,94164.00
2023-03-29T19:11:07.067Z,94182.00
2023-03-29T19:13:34.707Z,94166.00
2023-03-29T19:16:02.351Z,94172.00
2023-03-29T19:18:32.433Z,94160.00
2023-03-29T19:21:02.352Z,94152.00
2023-03-29T19:23:29.303Z,94158.00
2023-03-29T19:25:59.998Z,94160.00
2023-03-29T19:28:27.525Z,94158.00
2023-03-29T19:30:56.406Z,94148.00
2023-03-29T19:33:26.933Z,94143.00
2023-03-29T19:35:56.672Z,94153.00
2023-03-29T19:38:23.675Z,94148.00
2023-03-29T19:40:52.070Z,94145.00
2023-03-29T19:43:20.745Z,94138.00
2023-03-29T19:45:50.110Z,94157.00
2023-03-29T19:50:48.425Z,94150.00
2023-03-29T19:53:15.668Z,94143.00
2023-03-29T19:55:45.042Z,94137.00
2023-03-29T19:58:12.852Z,94146.00
2023-03-29T20:00:42.241Z,94147.00
2023-03-29T20:03:13.888Z,94147.00
2023-03-29T20:05:41.078Z,94151.00
2023-03-29T20:08:08.027Z,94144.00
2023-03-29T20:10:36.437Z,94131.00
2023-03-29T20:13:03.823Z,94144.00
2023-03-29T20:15:31.031Z,94144.00
2023-03-29T20:17:59.910Z,94138.00
2023-03-29T20:20:28.370Z,94144.00
2023-03-29T20:23:03.998Z,94137.00
2023-03-29T20:25:32.589Z,94133.00
2023-03-29T20:27:59.641Z,94137.00
2023-03-29T20:30:29.163Z,94129.00
2023-03-29T20:32:56.226Z,94133.00
2023-03-29T20:35:25.989Z,94136.00
2023-03-29T20:37:53.519Z,94125.00
2023-03-29T20:40:23.001Z,94124.00
2023-03-29T20:42:54.261Z,94121.00
2023-03-29T20:45:21.279Z,94129.00
2023-03-29T20:47:57.596Z,94121.00
2023-03-29T20:50:28.100Z,94114.00
2023-03-29T20:52:56.638Z,94113.00
2023-03-29T20:55:24.424Z,94112.00
2023-03-29T20:57:54.550Z,94109.00
2023-03-29T21:00:25.315Z,94105.00
2023-03-29T21:02:55.316Z,94114.00
2023-03-29T21:05:23.062Z,94108.00
2023-03-29T21:07:49.979Z,94100.00
2023-03-29T21:10:17.497Z,94110.00
2023-03-29T21:12:48.327Z,94115.00
2023-03-29T21:15:17.816Z,94111.00
2023-03-29T21:17:45.405Z,94109.00
2023-03-29T21:20:14.715Z,94104.00
2023-03-29T21:22:44.274Z,94109.00
2023-03-29T21:25:14.546Z,94108.00
2023-03-29T21:27:44.461Z,94099.00
2023-03-29T21:30:14.184Z,94105.00
2023-03-29T21:32:41.603Z,94106.00
2023-03-29T21:35:09.671Z,94100.00
2023-03-29T21:37:36.834Z,94099.00
2023-03-29T21:40:06.032Z,94108.00
2023-03-29T21:42:36.733Z,94099.00
2023-03-29T21:45:04.588Z,94107.00
2023-03-29T21:47:31.552Z,94093.00
2023-03-29T21:49:58.603Z,94101.00
2023-03-29T21:52:27.948Z,94094.00
2023-03-29T21:54:57.365Z,94095.00
2023-03-29T21:57:24.385Z,94102.00
2023-03-29T21:59:53.948Z,94090.00
2023-03-29T22:02:20.971Z,94086.00
2023-03-29T22:04:50.200Z,94093.00
2023-03-29T22:07:17.283Z,94088.00
2023-03-29T22:09:44.387Z,94081.00
2023-03-29T22:12:12.056Z,94079.00
2023-03-29T22:14:41.356Z,94089.00
2023-03-29T22:17:10.384Z,94080.00
2023-03-29T22:19:41.710Z,94088.00
2023-03-29T22:22:13.757Z,94081.00
2023-03-29T22:24:41.915Z,94083.00
2023-03-29T22:27:12.315Z,94078.00
2023-03-29T22:29:39.237Z,94083.00
2023-03-29T22:32:06.255Z,94084.00
2023-03-29T22:34:35.783Z,94084.00
2023-03-29T22:37:05.964Z,94079.00
2023-03-29T22:39:38.124Z,94078.00
2023-03-29T22:42:05.073Z,94086.00
2023-03-29T22:44:34.139Z,94075.00
2023-03-29T22:47:01.010Z,94064.00
2023-03-29T22:49:27.864Z,94077.00
2023-03-29T22:51:57.016Z,94077.00
2023-03-29T22:54:23.944Z,94078.00
2023-03-29T22:56:53.237Z,94073.00
2023-03-29T22:59:20.701Z,94072.00
2023-03-29T23:01:48.386Z,94062.00
2023-03-29T23:04:15.875Z,94065.00
2023-03-29T23:06:42.761Z,94068.00
2023-03-29T23:09:16.372Z,94070.00
2023-03-29T23:11:43.543Z,94064.00
2023-03-29T23:14:14.845Z,94066.00
2023-03-29T23:16:42.355Z,94064.00
2023-03-29T23:19:11.928Z,94057.00
2023-03-29T23:21:40.917Z,94059.00
2023-03-29T23:24:08.564Z,94056.00
2023-03-29T23:26:35.752Z,94054.00
2023-03-29T23:29:04.100Z,94051.00
2023-03-29T23:31:34.099Z,94047.00
2023-03-29T23:34:03.350Z,94043.00
2023-03-29T23:36:33.335Z,94047.00
2023-03-29T23:39:00.466Z,94052.00
2023-03-29T23:41:28.328Z,94058.00
2023-03-29T23:43:57.590Z,94055.00
2023-03-29T23:46:24.763Z,94051.00
2023-03-29T23:48:52.586Z,94041.00
2023-03-29T23:51:23.406Z,94037.00
2023-03-29T23:53:52.756Z,94029.00
2023-03-29T23:56:22.897Z,94041.00
2023-03-29T23:58:52.337Z,94032.00
